createdAt,value
2023-03-17T00:02:13.222Z,33.20
2023-03-17T00:04:42.485Z,33.20
2023-03-17T00:07:18.277Z,33.30
2023-03-17T00:09:47.132Z,33.30
2023-03-17T00:12:19.760Z,33.20
2023-03-17T00:14:49.399Z,33.20
2023-03-17T00:17:18.945Z,33.40
2023-03-17T00:19:47.979Z,33.50
2023-03-17T00:22:22.377Z,33.40
2023-03-17T00:24:51.369Z,33.40
2023-03-17T00:27:22.510Z,33.50
2023-03-17T00:29:51.357Z,33.50
2023-03-17T00:32:23.205Z,33.40
2023-03-17T00:34:52.997Z,33.40
2023-03-17T00:37:22.179Z,33.40
2023-03-17T00:39:51.580Z,33.30
2023-03-17T00:42:21.906Z,33.50
2023-03-17T00:44:50.716Z,33.40
2023-03-17T00:47:19.522Z,33.50
2023-03-17T00:49:49.399Z,33.50
2023-03-17T00:52:18.052Z,33.40
2023-03-17T00:54:47.350Z,33.40
2023-03-17T00:57:16.158Z,33.40
2023-03-17T00:59:46.821Z,33.40
2023-03-17T01:02:16.449Z,33.20
2023-03-17T01:04:52.931Z,33.40
2023-03-17T01:07:30.640Z,33.40
2023-03-17T01:09:59.846Z,33.40
2023-03-17T01:12:29.315Z,33.50
2023-03-17T01:15:00.789Z,33.70
2023-03-17T01:17:29.461Z,34.00
2023-03-17T01:19:58.668Z,34.20
2023-03-17T01:22:27.438Z,34.30
2023-03-17T01:24:56.867Z,34.40
2023-03-17T01:27:25.994Z,34.40
2023-03-17T01:29:55.552Z,34.40
2023-03-17T01:32:26.042Z,34.20
2023-03-17T01:34:54.927Z,34.50
2023-03-17T01:37:24.014Z,34.40
2023-03-17T01:39:53.092Z,34.50
2023-03-17T01:42:23.120Z,34.60
2023-03-17T01:45:03.466Z,34.70
2023-03-17T01:47:36.414Z,34.30
2023-03-17T01:50:10.148Z,34.30
2023-03-17T01:52:40.971Z,34.40
2023-03-17T01:55:16.302Z,34.50
2023-03-17T01:57:51.649Z,34.50
2023-03-17T02:00:24.345Z,34.50
2023-03-17T02:02:58.418Z,34.60
2023-03-17T02:05:31.294Z,34.70
2023-03-17T02:08:01.145Z,34.50
2023-03-17T02:10:33.741Z,34.60
2023-03-17T02:13:05.813Z,34.70
2023-03-17T02:15:40.452Z,34.50
2023-03-17T02:18:13.722Z,34.40
2023-03-17T02:21:52.090Z,34.50
2023-03-17T02:24:35.999Z,34.40
2023-03-17T02:27:11.994Z,34.30
2023-03-17T02:29:41.830Z,34.40
2023-03-17T02:32:11.435Z,34.50
2023-03-17T02:34:41.110Z,34.70
2023-03-17T02:37:10.114Z,34.70
2023-03-17T02:39:40.542Z,34.80
2023-03-17T02:42:10.120Z,34.90
2023-03-17T02:44:39.211Z,34.80
2023-03-17T02:47:09.351Z,34.90
2023-03-17T02:49:40.334Z,34.90
2023-03-17T02:52:14.250Z,35.00
2023-03-17T02:54:44.838Z,35.20
2023-03-17T02:57:13.853Z,34.90
2023-03-17T02:59:42.924Z,35.10
2023-03-17T03:02:12.077Z,35.00
2023-03-17T03:04:42.155Z,35.20
2023-03-17T03:07:11.639Z,35.20
2023-03-17T03:09:42.058Z,35.10
2023-03-17T03:12:14.011Z,35.20
2023-03-17T03:14:43.177Z,35.10
2023-03-17T03:17:12.431Z,35.00
2023-03-17T03:19:41.453Z,35.10
2023-03-17T03:22:11.283Z,35.20
2023-03-17T03:24:40.224Z,34.90
2023-03-17T03:27:09.067Z,35.00
2023-03-17T03:29:39.423Z,34.90
2023-03-17T03:32:09.113Z,34.90
2023-03-17T03:34:38.005Z,34.90
2023-03-17T03:37:07.053Z,34.80
2023-03-17T03:39:35.911Z,35.00
2023-03-17T03:42:05.568Z,35.20
2023-03-17T03:44:34.662Z,35.20
2023-03-17T03:47:04.933Z,35.40
2023-03-17T03:49:33.743Z,35.40
2023-03-17T03:52:02.868Z,35.40
2023-03-17T03:54:31.793Z,35.30
2023-03-17T03:57:00.872Z,35.40
2023-03-17T03:59:32.434Z,35.40
2023-03-17T04:02:01.225Z,35.50
2023-03-17T04:04:32.046Z,35.50
2023-03-17T04:07:01.792Z,35.50
2023-03-17T04:09:30.608Z,35.40
2023-03-17T04:11:59.525Z,35.40
2023-03-17T04:14:28.874Z,35.50
2023-03-17T04:16:57.856Z,35.20
2023-03-17T04:19:26.678Z,35.30
2023-03-17T04:21:57.040Z,35.30
2023-03-17T04:24:27.761Z,35.60
2023-03-17T04:26:57.101Z,35.70
2023-03-17T04:29:25.793Z,35.80
2023-03-17T04:31:54.769Z,35.90
2023-03-17T04:34:24.569Z,35.90
2023-03-17T04:36:53.380Z,36.00
2023-03-17T04:39:23.792Z,35.90
2023-03-17T04:41:52.582Z,35.90
2023-03-17T04:44:21.654Z,35.80
2023-03-17T04:46:50.462Z,35.90
2023-03-17T04:49:19.377Z,35.90
2023-03-17T04:51:48.368Z,35.80
2023-03-17T04:54:17.640Z,36.00
2023-03-17T04:56:48.270Z,36.10
2023-03-17T04:59:17.455Z,36.00
2023-03-17T05:01:47.417Z,36.00
2023-03-17T05:04:28.875Z,36.00
2023-03-17T05:06:59.831Z,35.90
2023-03-17T05:09:29.622Z,36.20
2023-03-17T05:12:00.245Z,36.70
2023-03-17T05:14:29.173Z,36.80
2023-03-17T05:16:58.020Z,37.00
2023-03-17T05:19:27.070Z,36.80
2023-03-17T05:21:56.368Z,36.90
2023-03-17T05:24:25.248Z,36.70
2023-03-17T05:26:54.118Z,36.70
2023-03-17T05:29:24.280Z,36.70
2023-03-17T05:31:53.248Z,36.80
2023-03-17T05:34:21.990Z,36.80
2023-03-17T05:36:50.793Z,36.80
2023-03-17T05:39:19.464Z,36.60
2023-03-17T05:41:48.493Z,36.60
2023-03-17T05:44:17.809Z,36.50
2023-03-17T05:46:48.340Z,36.50
2023-03-17T05:49:17.010Z,36.50
2023-03-17T05:51:45.806Z,36.50
2023-03-17T05:54:15.156Z,37.00
2023-03-17T05:56:44.094Z,36.40
2023-03-17T05:59:15.186Z,36.50
2023-03-17T06:01:44.042Z,36.50
2023-03-17T06:04:15.517Z,36.40
2023-03-17T06:06:44.238Z,36.30
2023-03-17T06:09:13.430Z,36.30
2023-03-17T06:11:44.184Z,36.40
2023-03-17T06:14:13.363Z,36.50
2023-03-17T06:16:42.409Z,36.50
2023-03-17T06:19:11.241Z,36.50
2023-03-17T06:21:41.849Z,36.60
2023-03-17T06:24:11.586Z,36.30
2023-03-17T06:26:40.484Z,36.30
2023-03-17T06:29:10.099Z,36.40
2023-03-17T06:31:39.452Z,36.40
2023-03-17T06:34:08.994Z,36.20
2023-03-17T06:36:39.283Z,36.40
2023-03-17T06:39:09.793Z,36.50
2023-03-17T06:41:38.724Z,36.50
2023-03-17T06:44:10.838Z,36.70
2023-03-17T06:46:39.649Z,37.30
2023-03-17T06:59:47.466Z,36.40
2023-03-17T07:02:26.144Z,35.60
2023-03-17T07:04:41.638Z,34.00
2023-03-17T07:07:11.109Z,34.70
2023-03-17T07:09:40.249Z,34.50
2023-03-17T07:12:11.207Z,34.20
2023-03-17T07:14:40.551Z,33.90
2023-03-17T07:17:13.441Z,33.00
2023-03-17T07:19:42.697Z,32.70
2023-03-17T07:22:14.260Z,31.70
2023-03-17T07:24:43.398Z,32.00
2023-03-17T07:27:14.504Z,32.30
2023-03-17T07:29:43.334Z,30.90
2023-03-17T07:32:12.741Z,29.80
2023-03-17T07:34:41.925Z,29.20
2023-03-17T07:37:10.879Z,27.50
2023-03-17T07:39:40.234Z,26.90
2023-03-17T07:42:08.966Z,26.50
2023-03-17T07:44:41.713Z,25.80
2023-03-17T07:47:11.706Z,24.40
2023-03-17T07:49:42.432Z,23.90
2023-03-17T07:52:12.758Z,23.90
2023-03-17T07:54:43.108Z,22.80
2023-03-17T07:57:12.688Z,21.70
2023-03-17T07:59:42.813Z,20.90
2023-03-17T08:02:17.321Z,20.90
2023-03-17T08:04:46.985Z,20.30
2023-03-17T08:07:16.026Z,20.00
2023-03-17T08:09:44.806Z,18.80
2023-03-17T08:12:13.990Z,19.20
2023-03-17T08:14:44.096Z,18.40
2023-03-17T08:17:13.738Z,18.30
2023-03-17T08:19:42.647Z,18.00
2023-03-17T08:22:12.522Z,17.50
2023-03-17T08:24:43.049Z,17.20
2023-03-17T08:27:12.227Z,17.50
2023-03-17T08:29:40.916Z,16.80
2023-03-17T08:32:11.844Z,16.50
2023-03-17T08:34:40.777Z,16.30
2023-03-17T08:37:11.446Z,16.20
2023-03-17T08:39:40.907Z,15.90
2023-03-17T08:42:09.655Z,16.30
2023-03-17T08:44:38.446Z,15.70
2023-03-17T08:47:07.540Z,16.00
2023-03-17T08:49:37.701Z,15.60
2023-03-17T08:52:07.123Z,15.50
2023-03-17T08:54:37.077Z,15.10
2023-03-17T08:57:05.884Z,15.30
2023-03-17T08:59:34.561Z,14.90
2023-03-17T09:02:03.190Z,14.80
2023-03-17T09:04:32.655Z,14.00
2023-03-17T09:07:04.184Z,12.90
2023-03-17T09:09:34.672Z,13.40
2023-03-17T09:12:05.792Z,12.50
2023-03-17T09:14:43.460Z,12.00
2023-03-17T09:17:17.807Z,11.40
2023-03-17T09:19:49.553Z,11.10
2023-03-17T09:22:19.913Z,11.20
2023-03-17T09:24:48.571Z,11.40
2023-03-17T09:27:17.082Z,10.90
2023-03-17T09:29:46.172Z,10.70
2023-03-17T09:32:15.423Z,10.00
2023-03-17T09:34:44.061Z,9.90
2023-03-17T09:37:12.904Z,10.30
2023-03-17T09:39:43.001Z,9.80
2023-03-17T09:42:38.774Z,9.30
2023-03-17T09:45:32.683Z,9.30
2023-03-17T09:48:33.835Z,8.60
2023-03-17T09:51:06.863Z,7.60
2023-03-17T09:53:42.888Z,7.80
2023-03-17T09:56:18.661Z,8.40
2023-03-17T09:58:53.864Z,7.30
2023-03-17T10:01:24.041Z,7.00
2023-03-17T10:03:53.133Z,6.30
2023-03-17T10:06:39.245Z,5.60
2023-03-17T10:09:27.194Z,5.00
2023-03-17T10:12:07.713Z,4.90
2023-03-17T10:14:51.977Z,4.40
2023-03-17T10:17:23.269Z,4.60
2023-03-17T10:20:02.158Z,4.30
2023-03-17T10:22:39.747Z,5.10
2023-03-17T10:25:17.247Z,4.70
2023-03-17T10:27:54.254Z,4.00
2023-03-17T10:30:26.192Z,3.90
2023-03-17T10:33:00.348Z,3.60
2023-03-17T10:35:38.231Z,3.40
2023-03-17T10:38:18.830Z,2.60
2023-03-17T10:40:57.436Z,2.60
2023-03-17T10:43:32.857Z,2.10
2023-03-17T10:46:04.265Z,1.40
2023-03-17T10:48:38.471Z,1.20
2023-03-17T10:51:11.776Z,1.40
2023-03-17T10:53:44.302Z,1.00
2023-03-17T10:56:25.176Z,1.00
2023-03-17T10:58:58.966Z,1.00
2023-03-17T11:01:36.167Z,1.00
2023-03-17T11:04:26.043Z,1.00
2023-03-17T11:07:02.090Z,1.00
2023-03-17T11:09:56.769Z,1.00
2023-03-17T11:12:33.647Z,1.00
2023-03-17T11:15:08.499Z,1.00
2023-03-17T11:17:49.548Z,1.00
2023-03-17T11:20:46.739Z,1.00
2023-03-17T11:23:33.070Z,1.00
2023-03-17T11:26:17.713Z,1.00
2023-03-17T11:28:54.438Z,1.00
2023-03-17T11:31:33.603Z,1.00
2023-03-17T11:34:10.012Z,1.00
2023-03-17T11:36:57.785Z,1.00
2023-03-17T11:39:40.227Z,1.00
2023-03-17T11:42:21.788Z,1.00
2023-03-17T11:45:50.477Z,1.00
2023-03-17T11:48:39.678Z,1.00
2023-03-17T11:51:27.700Z,1.00
2023-03-17T11:54:30.794Z,1.00
2023-03-17T11:57:09.166Z,1.00
2023-03-17T12:01:32.236Z,1.00
2023-03-17T12:06:20.236Z,1.00
2023-03-17T12:08:02.495Z,1.00
2023-03-17T12:10:40.801Z,1.00
2023-03-17T12:13:18.199Z,1.00
2023-03-17T12:16:04.837Z,1.00
2023-03-17T12:18:46.386Z,1.00
2023-03-17T12:21:27.269Z,1.00
2023-03-17T12:24:07.891Z,1.00
2023-03-17T12:26:46.450Z,1.00
2023-03-17T12:29:24.451Z,1.00
2023-03-17T12:32:02.978Z,1.00
2023-03-17T12:34:44.838Z,1.00
2023-03-17T12:37:16.302Z,1.00
2023-03-17T12:39:52.696Z,1.00
2023-03-17T12:42:38.315Z,1.00
2023-03-17T12:45:41.541Z,1.00
2023-03-17T12:48:54.471Z,1.00
2023-03-17T12:51:48.250Z,1.00
2023-03-17T12:54:26.538Z,1.00
2023-03-17T12:57:24.456Z,1.00
2023-03-17T13:00:05.738Z,1.00
2023-03-17T13:02:39.690Z,1.00
2023-03-17T13:05:19.832Z,1.00
2023-03-17T13:08:15.995Z,1.00
2023-03-17T13:10:48.805Z,1.00
2023-03-17T13:13:48.252Z,1.00
2023-03-17T13:16:33.923Z,1.00
2023-03-17T13:19:21.100Z,1.00
2023-03-17T13:22:29.626Z,1.00
2023-03-17T13:25:27.480Z,1.00
2023-03-17T13:28:18.877Z,1.00
2023-03-17T13:31:12.522Z,1.00
2023-03-17T13:33:47.555Z,1.00
2023-03-17T13:36:31.726Z,1.00
2023-03-17T13:39:33.294Z,1.00
2023-03-17T13:42:24.430Z,1.00
2023-03-17T13:45:19.941Z,1.00
2023-03-17T13:47:48.809Z,1.00
2023-03-17T13:50:24.559Z,1.00
2023-03-17T13:53:02.079Z,1.00
2023-03-17T13:55:38.708Z,1.00
2023-03-17T13:58:35.829Z,1.10
2023-03-17T14:01:10.347Z,1.00
2023-03-17T14:03:50.220Z,1.50
2023-03-17T14:06:23.639Z,1.40
2023-03-17T14:08:58.671Z,2.00
2023-03-17T14:11:36.930Z,2.50
2023-03-17T14:14:32.533Z,2.30
2023-03-17T14:17:14.869Z,1.90
2023-03-17T14:20:01.485Z,1.90
2023-03-17T14:22:31.931Z,1.60
2023-03-17T14:25:03.974Z,1.70
2023-03-17T14:27:37.840Z,1.40
2023-03-17T14:30:21.351Z,1.00
2023-03-17T14:32:53.424Z,1.00
2023-03-17T14:35:24.490Z,1.00
2023-03-17T14:37:53.307Z,1.00
2023-03-17T14:40:25.758Z,1.00
2023-03-17T14:42:54.856Z,1.00
2023-03-17T14:45:33.079Z,1.00
2023-03-17T14:48:03.813Z,1.00
2023-03-17T14:50:34.116Z,1.00
2023-03-17T14:53:03.201Z,1.00
2023-03-17T14:55:43.444Z,1.00
2023-03-17T14:58:24.447Z,1.00
2023-03-17T15:01:05.950Z,1.00
2023-03-17T15:03:40.342Z,1.00
2023-03-17T15:06:25.800Z,1.00
2023-03-17T15:08:55.225Z,1.00
2023-03-17T15:11:28.727Z,1.00
2023-03-17T15:14:07.352Z,1.00
2023-03-17T15:16:38.671Z,1.00
2023-03-17T15:19:21.037Z,1.00
2023-03-17T15:21:50.807Z,1.00
2023-03-17T15:24:39.305Z,1.00
2023-03-17T15:27:16.047Z,1.00
2023-03-17T15:29:45.304Z,1.00
2023-03-17T15:32:20.291Z,1.00
2023-03-17T15:34:49.701Z,1.00
2023-03-17T15:37:21.338Z,1.00
2023-03-17T15:39:51.445Z,1.00
2023-03-17T15:42:24.923Z,1.20
2023-03-17T15:44:54.188Z,1.40
2023-03-17T15:47:28.425Z,2.10
2023-03-17T15:50:11.662Z,2.90
2023-03-17T15:52:40.512Z,3.40
2023-03-17T15:55:29.607Z,3.90
2023-03-17T15:58:04.287Z,4.40
2023-03-17T16:00:33.530Z,5.20
2023-03-17T16:03:17.558Z,6.00
2023-03-17T16:05:46.895Z,6.20
2023-03-17T16:08:18.011Z,6.50
2023-03-17T16:10:47.612Z,6.80
2023-03-17T16:13:16.431Z,6.80
2023-03-17T16:15:51.954Z,7.10
2023-03-17T16:18:29.518Z,7.30
2023-03-17T16:20:58.457Z,7.70
2023-03-17T16:23:33.996Z,7.90
2023-03-17T16:26:14.421Z,8.20
2023-03-17T16:28:46.144Z,8.50
2023-03-17T16:31:22.886Z,8.60
2023-03-17T16:33:56.810Z,9.00
2023-03-17T16:36:27.199Z,9.40
2023-03-17T16:38:55.775Z,9.70
2023-03-17T16:41:27.702Z,9.90
2023-03-17T16:44:02.470Z,10.20
2023-03-17T16:46:35.885Z,10.40
2023-03-17T16:49:07.180Z,10.60
2023-03-17T16:51:35.935Z,10.90
2023-03-17T16:54:04.577Z,11.40
2023-03-17T16:56:33.650Z,12.30
2023-03-17T16:59:03.177Z,14.30
2023-03-17T17:01:32.756Z,15.60
2023-03-17T17:04:01.412Z,15.80
2023-03-17T17:06:33.117Z,16.50
2023-03-17T17:09:01.888Z,16.50
2023-03-17T17:11:30.649Z,16.90
2023-03-17T17:13:59.952Z,17.10
2023-03-17T17:16:32.116Z,17.20
2023-03-17T17:19:02.390Z,17.60
2023-03-17T17:21:33.158Z,17.90
2023-03-17T17:24:01.917Z,18.00
2023-03-17T17:26:30.638Z,18.10
2023-03-17T17:28:59.356Z,18.20
2023-03-17T17:31:28.036Z,18.30
2023-03-17T17:33:56.810Z,18.80
2023-03-17T17:36:28.101Z,19.10
2023-03-17T17:38:58.379Z,19.30
2023-03-17T17:41:26.995Z,19.70
2023-03-17T17:43:56.295Z,20.00
2023-03-17T17:46:25.495Z,20.40
2023-03-17T17:48:54.171Z,20.90
2023-03-17T17:51:23.182Z,21.50
2023-03-17T17:53:51.942Z,21.90
2023-03-17T17:56:22.250Z,22.00
2023-03-17T17:58:51.347Z,22.50
2023-03-17T18:01:23.034Z,23.00
2023-03-17T18:03:51.890Z,23.70
2023-03-17T18:06:20.610Z,24.10
2023-03-17T18:08:51.666Z,24.90
2023-03-17T18:11:21.828Z,25.90
2023-03-17T18:13:50.411Z,26.50
2023-03-17T18:16:20.379Z,27.10
2023-03-17T18:18:48.941Z,27.50
2023-03-17T18:21:18.421Z,27.60
2023-03-17T18:23:48.769Z,27.90
2023-03-17T18:26:20.283Z,28.00
2023-03-17T18:28:51.522Z,28.10
2023-03-17T18:31:26.033Z,28.40
2023-03-17T18:33:58.416Z,28.60
2023-03-17T18:36:29.121Z,29.10
2023-03-17T18:38:58.402Z,30.00
2023-03-17T18:41:28.926Z,30.20
2023-03-17T18:43:59.264Z,30.60
2023-03-17T18:46:27.818Z,30.60
2023-03-17T18:48:56.619Z,30.70
2023-03-17T18:51:25.414Z,31.30
2023-03-17T18:53:54.687Z,31.30
2023-03-17T18:56:24.315Z,31.40
2023-03-17T18:58:53.192Z,31.50
2023-03-17T19:01:24.082Z,31.10
2023-03-17T19:03:53.063Z,31.00
2023-03-17T19:06:24.251Z,31.20
2023-03-17T19:08:52.841Z,31.00
2023-03-17T19:11:22.243Z,31.10
2023-03-17T19:13:52.501Z,31.30
2023-03-17T19:16:28.795Z,31.40
2023-03-17T19:18:58.087Z,31.40
2023-03-17T19:21:27.629Z,31.50
2023-03-17T19:23:56.111Z,31.90
2023-03-17T19:26:24.542Z,32.60
2023-03-17T19:28:56.202Z,32.90
2023-03-17T19:31:26.503Z,33.00
2023-03-17T19:33:55.883Z,33.00
2023-03-17T19:36:24.572Z,32.90
2023-03-17T19:38:53.145Z,32.80
2023-03-17T19:41:21.708Z,32.80
2023-03-17T19:43:50.344Z,32.90
2023-03-17T19:46:18.872Z,32.80
2023-03-17T19:48:48.986Z,32.80
2023-03-17T19:51:18.204Z,33.10
2023-03-17T19:53:46.935Z,33.80
2023-03-17T19:56:15.438Z,35.10
2023-03-17T19:58:44.062Z,34.40
2023-03-17T20:01:13.608Z,34.20
2023-03-17T20:03:42.679Z,34.30
2023-03-17T20:06:14.815Z,34.40
2023-03-17T20:08:44.650Z,34.40
2023-03-17T20:11:16.675Z,34.20
2023-03-17T20:13:47.844Z,34.10
2023-03-17T20:16:17.445Z,34.00
2023-03-17T20:18:46.248Z,34.00
2023-03-17T20:21:16.728Z,33.90
2023-03-17T20:23:45.470Z,33.90
2023-03-17T20:26:14.359Z,33.80
2023-03-17T20:28:43.120Z,33.90
2023-03-17T20:31:11.776Z,33.90
2023-03-17T20:33:40.564Z,33.90
2023-03-17T20:36:09.875Z,33.90
2023-03-17T20:38:40.004Z,33.90
2023-03-17T20:41:12.487Z,33.90
2023-03-17T20:43:41.875Z,33.90
2023-03-17T20:46:18.580Z,34.10
2023-03-17T20:48:48.291Z,34.20
2023-03-17T20:51:17.984Z,34.20
2023-03-17T20:53:50.131Z,34.30
2023-03-17T20:56:22.313Z,34.40
2023-03-17T20:58:53.374Z,34.70
2023-03-17T21:01:23.635Z,35.00
2023-03-17T21:03:53.660Z,35.10
2023-03-17T21:06:24.808Z,35.20
2023-03-17T21:08:56.258Z,35.20
2023-03-17T21:11:26.645Z,35.40
2023-03-17T21:13:56.229Z,35.50
2023-03-17T21:16:27.810Z,35.50
2023-03-17T21:18:56.452Z,35.50
2023-03-17T21:21:27.965Z,35.30
2023-03-17T21:23:58.392Z,35.80
2023-03-17T21:26:27.259Z,36.10
2023-03-17T21:28:57.174Z,36.80
2023-03-17T21:31:26.575Z,36.90
2023-03-17T21:33:55.701Z,36.90
2023-03-17T21:36:25.015Z,37.60
2023-03-17T21:38:53.863Z,37.90
2023-03-17T21:41:33.347Z,37.90
2023-03-17T21:44:03.761Z,37.70
2023-03-17T21:46:33.782Z,37.70
2023-03-17T21:49:02.885Z,37.80
2023-03-17T21:51:32.281Z,38.00
2023-03-17T21:54:01.344Z,38.40
2023-03-17T21:56:32.175Z,38.50
2023-03-17T21:59:01.035Z,38.20
2023-03-17T22:01:30.066Z,38.20
2023-03-17T22:03:59.695Z,38.10
2023-03-17T22:06:29.562Z,37.80
2023-03-17T22:08:58.412Z,37.70
2023-03-17T22:11:27.268Z,37.70
2023-03-17T22:13:58.609Z,37.80
2023-03-17T22:16:27.837Z,37.80
2023-03-17T22:18:57.016Z,38.00
2023-03-17T22:21:26.213Z,38.00
2023-03-17T22:23:55.130Z,37.90
2023-03-17T22:26:24.523Z,37.90
2023-03-17T22:28:53.640Z,37.70
2023-03-17T22:31:27.346Z,37.60
2023-03-17T22:33:58.824Z,37.60
2023-03-17T22:36:28.697Z,37.60
2023-03-17T22:38:58.829Z,37.50
2023-03-17T22:41:30.245Z,37.50
2023-03-17T22:43:59.668Z,37.50
2023-03-17T22:46:30.188Z,37.70
2023-03-17T22:48:58.792Z,37.70
2023-03-17T22:51:28.558Z,37.70
2023-03-17T22:53:58.118Z,37.60
2023-03-17T22:56:27.739Z,37.60
2023-03-17T22:58:57.307Z,37.50
2023-03-17T23:01:26.238Z,37.50
2023-03-17T23:03:57.187Z,37.60
2023-03-17T23:06:26.494Z,37.40
2023-03-17T23:08:55.314Z,37.50
2023-03-17T23:11:27.187Z,37.60
2023-03-17T23:13:57.056Z,37.60
2023-03-17T23:16:27.394Z,37.80
2023-03-17T23:18:57.860Z,37.80
2023-03-17T23:21:31.021Z,37.80
2023-03-17T23:24:00.187Z,37.60
2023-03-17T23:26:30.181Z,37.70
2023-03-17T23:28:59.353Z,37.70
2023-03-17T23:31:28.262Z,37.70
2023-03-17T23:33:58.750Z,38.10
2023-03-17T23:36:28.130Z,38.20
2023-03-17T23:38:57.803Z,38.00
2023-03-17T23:41:27.217Z,38.20
2023-03-17T23:43:56.891Z,38.10
2023-03-17T23:46:25.847Z,38.20
2023-03-17T23:48:55.016Z,38.10
2023-03-17T23:51:25.392Z,38.10
2023-03-17T23:53:54.621Z,38.20
2023-03-17T23:56:23.261Z,38.20
2023-03-17T23:58:52.334Z,38.60
